Time;durP1;ratioP1;P1;durP2;ratioP2;P2;SDS_P1;SDS_P2;PMS_P1;PMS_P2;Temp;Humidity;BMP_temperature;BMP_pressure;BME280_temperature;BME280_humidity;BME280_pressure;Samples;Min_cycle;Max_cycle;Signal;HPM_P1;HPM_P2
2021/12/16 00:03:46;;;;;;;22.77;17.77;;;;;;;;;;5072261;28;20190;-59
2021/12/16 00:08:37;;;;;;;22.93;16.60;;;;;;;;;;5076504;28;20191;-60
2021/12/16 00:35:45;;;;;;;27.43;17.87;;;;;;;;;;5075430;28;20610;-59
2021/12/16 00:38:11;;;;;;;26.60;18.47;;;;;;;;;;5075712;28;20270;-61
2021/12/16 00:40:40;;;;;;;25.27;18.03;;;;;;;;;;5075900;28;20200;-75
2021/12/16 00:55:57;;;;;;;36.17;23.27;;;;;;;;;;5075457;28;20272;-69
2021/12/16 00:58:27;;;;;;;34.70;23.93;;;;;;;;;;5075021;28;20715;-67
2021/12/16 01:04:28;;;;;;;33.87;23.03;;;;;;;;;;5062914;28;20286;-70
2021/12/16 01:06:55;;;;;;;35.83;24.70;;;;;;;;;;5074396;28;20230;-66
2021/12/16 01:37:04;;;;;;;39.43;26.40;;;;;;;;;;5074539;28;20207;-65
2021/12/16 01:42:20;;;;;;;39.50;26.57;;;;;;;;;;5074528;28;20207;-66
2021/12/16 01:47:56;;;;;;;41.30;26.57;;;;;;;;;;5074188;28;20190;-65
2021/12/16 01:50:28;;;;;;;38.90;26.37;;;;;;;;;;5073836;28;20260;-65
2021/12/16 01:55:26;;;;;;;38.57;26.67;;;;;;;;;;5074275;28;20207;-66
2021/12/16 01:57:58;;;;;;;38.33;26.70;;;;;;;;;;5073917;28;20200;-65
2021/12/16 02:00:28;;;;;;;39.10;26.10;;;;;;;;;;5073986;28;20188;-66
2021/12/16 02:03:01;;;;;;;37.83;26.00;;;;;;;;;;5073548;28;20546;-65
2021/12/16 02:10:37;;;;;;;40.27;25.60;;;;;;;;;;5074148;28;20198;-66
2021/12/16 02:32:47;;;;;;;37.20;26.03;;;;;;;;;;5052033;28;20310;-66
2021/12/16 02:35:30;;;;;;;40.00;28.37;;;;;;;;;;5073576;28;20249;-65
2021/12/16 02:37:59;;;;;;;39.20;26.93;;;;;;;;;;5073142;28;20662;-66
2021/12/16 02:40:25;;;;;;;38.80;27.43;;;;;;;;;;5073456;28;20220;-65
2021/12/16 02:43:19;;;;;;;38.03;25.83;;;;;;;;;;5073304;28;20187;-66
2021/12/16 02:48:35;;;;;;;40.10;28.30;;;;;;;;;;5073154;28;20676;-64
2021/12/16 02:51:02;;;;;;;40.47;28.17;;;;;;;;;;5073261;28;20191;-65
2021/12/16 02:53:30;;;;;;;40.67;27.70;;;;;;;;;;5073162;28;20270;-67
2021/12/16 02:55:56;;;;;;;42.43;27.90;;;;;;;;;;5073006;28;20214;-66
2021/12/16 02:58:23;;;;;;;40.20;27.73;;;;;;;;;;5072990;28;20651;-66
2021/12/16 03:00:52;;;;;;;37.87;27.53;;;;;;;;;;5072726;28;20615;-66
2021/12/16 03:03:18;;;;;;;40.00;27.00;;;;;;;;;;5073086;28;20195;-65
2021/12/16 03:05:44;;;;;;;36.10;27.63;;;;;;;;;;5072578;28;20235;-66
2021/12/16 03:08:11;;;;;;;40.07;27.30;;;;;;;;;;5072836;28;20252;-65
2021/12/16 03:14:02;;;;;;;39.67;28.50;;;;;;;;;;5072729;28;20218;-66
2021/12/16 03:21:17;;;;;;;39.33;26.57;;;;;;;;;;5072659;28;20195;-65
2021/12/16 03:32:07;;;;;;;38.60;28.03;;;;;;;;;;5063628;28;20230;-65
2021/12/16 03:37:16;;;;;;;40.90;26.83;;;;;;;;;;5072575;28;20222;-65
2021/12/16 03:39:45;;;;;;;39.60;28.63;;;;;;;;;;5072339;28;20315;-66
2021/12/16 03:42:13;;;;;;;40.17;27.40;;;;;;;;;;5072174;28;20214;-66
2021/12/16 03:44:52;;;;;;;39.37;28.53;;;;;;;;;;5072513;28;20249;-65
2021/12/16 03:47:20;;;;;;;40.00;27.73;;;;;;;;;;5072361;28;20201;-66
2021/12/16 03:49:46;;;;;;;38.87;29.13;;;;;;;;;;5072330;28;20686;-66
2021/12/16 03:52:12;;;;;;;37.50;27.97;;;;;;;;;;5072508;28;20292;-67
2021/12/16 03:54:41;;;;;;;40.63;28.23;;;;;;;;;;5072268;28;20191;-65
2021/12/16 03:57:08;;;;;;;42.83;28.33;;;;;;;;;;5072240;28;20223;-65
2021/12/16 03:59:36;;;;;;;42.03;28.30;;;;;;;;;;5072360;28;20199;-67
2021/12/16 04:02:04;;;;;;;41.93;28.33;;;;;;;;;;5072200;28;20212;-66
2021/12/16 04:04:30;;;;;;;42.87;29.70;;;;;;;;;;5072249;28;20235;-66
2021/12/16 04:06:56;;;;;;;41.37;29.10;;;;;;;;;;5071845;28;20217;-65
2021/12/16 04:09:22;;;;;;;45.87;29.03;;;;;;;;;;5072269;28;20199;-65
2021/12/16 04:11:55;;;;;;;39.60;27.77;;;;;;;;;;5072041;28;20214;-67
2021/12/16 04:14:21;;;;;;;40.43;28.23;;;;;;;;;;5072226;28;20199;-66
2021/12/16 04:16:50;;;;;;;39.90;26.93;;;;;;;;;;5071965;28;20187;-65
2021/12/16 04:19:18;;;;;;;41.13;28.77;;;;;;;;;;5072202;28;20199;-65
2021/12/16 04:21:46;;;;;;;36.87;26.63;;;;;;;;;;5072129;28;20237;-65
2021/12/16 04:24:13;;;;;;;40.73;29.33;;;;;;;;;;5072190;28;20282;-66
2021/12/16 04:26:40;;;;;;;42.10;28.53;;;;;;;;;;5071952;28;20414;-66
2021/12/16 04:29:07;;;;;;;45.13;28.97;;;;;;;;;;5071963;28;20567;-65
2021/12/16 04:31:33;;;;;;;41.70;28.03;;;;;;;;;;5071950;28;20199;-65
2021/12/16 04:34:01;;;;;;;40.67;28.00;;;;;;;;;;5071879;28;20738;-66
2021/12/16 04:36:27;;;;;;;39.37;28.70;;;;;;;;;;5071993;28;20298;-68
2021/12/16 04:38:54;;;;;;;45.00;30.67;;;;;;;;;;5071771;28;20285;-65
2021/12/16 04:41:20;;;;;;;44.27;30.03;;;;;;;;;;5071984;28;20204;-65
2021/12/16 04:43:47;;;;;;;44.67;30.70;;;;;;;;;;5071889;28;20195;-65
2021/12/16 04:46:15;;;;;;;43.60;28.97;;;;;;;;;;5071830;28;20200;-66
2021/12/16 04:48:42;;;;;;;43.83;29.80;;;;;;;;;;5071767;28;20731;-67
2021/12/16 04:51:10;;;;;;;45.93;30.67;;;;;;;;;;5071665;28;20267;-66
2021/12/16 04:53:37;;;;;;;42.63;30.07;;;;;;;;;;5072732;28;20277;-66
2021/12/16 04:56:03;;;;;;;41.67;29.33;;;;;;;;;;5075362;28;20203;-65
2021/12/16 04:58:29;;;;;;;44.37;30.83;;;;;;;;;;5075350;28;20382;-67
2021/12/16 05:00:55;;;;;;;49.33;30.30;;;;;;;;;;5075188;28;20214;-65
2021/12/16 05:03:22;;;;;;;44.93;31.07;;;;;;;;;;5075296;28;20203;-66
2021/12/16 05:05:48;;;;;;;43.93;30.00;;;;;;;;;;5075030;28;20225;-65
2021/12/16 05:08:16;;;;;;;44.53;29.03;;;;;;;;;;5075253;28;20731;-65
2021/12/16 05:10:42;;;;;;;42.43;28.63;;;;;;;;;;5074916;28;20203;-64
2021/12/16 05:13:08;;;;;;;44.13;28.90;;;;;;;;;;5075081;28;20220;-65
2021/12/16 05:15:37;;;;;;;40.40;29.47;;;;;;;;;;5075013;28;20287;-65
2021/12/16 05:18:05;;;;;;;40.57;28.27;;;;;;;;;;5074823;28;20195;-65
2021/12/16 05:20:32;;;;;;;40.30;28.43;;;;;;;;;;5074961;28;20210;-66
2021/12/16 05:26:04;;;;;;;41.20;29.17;;;;;;;;;;5074834;28;20190;-64
2021/12/16 05:28:30;;;;;;;43.43;28.67;;;;;;;;;;5074903;28;20299;-65
2021/12/16 05:30:56;;;;;;;39.67;29.07;;;;;;;;;;5074639;28;20191;-65
2021/12/16 05:33:23;;;;;;;42.80;30.73;;;;;;;;;;5074739;28;20274;-65
2021/12/16 05:35:50;;;;;;;43.50;29.07;;;;;;;;;;5074388;28;20237;-66
2021/12/16 05:38:17;;;;;;;42.97;28.93;;;;;;;;;;5074398;28;20595;-66
2021/12/16 05:40:43;;;;;;;44.50;30.83;;;;;;;;;;5074413;28;20283;-66
2021/12/16 05:43:11;;;;;;;42.43;29.53;;;;;;;;;;5074376;28;20204;-67
2021/12/16 05:45:37;;;;;;;41.40;29.73;;;;;;;;;;5074499;28;20203;-67
2021/12/16 05:48:05;;;;;;;42.17;30.17;;;;;;;;;;5074254;28;20194;-66
2021/12/16 05:50:32;;;;;;;40.00;28.40;;;;;;;;;;5074489;28;20261;-66
2021/12/16 05:52:58;;;;;;;37.10;27.93;;;;;;;;;;5074011;28;20702;-66
2021/12/16 05:55:24;;;;;;;39.83;29.30;;;;;;;;;;5074350;28;20207;-66
2021/12/16 05:57:50;;;;;;;40.17;30.00;;;;;;;;;;5074178;28;20253;-65
2021/12/16 06:00:20;;;;;;;42.07;29.57;;;;;;;;;;5074179;28;20196;-66
2021/12/16 06:02:46;;;;;;;44.53;31.13;;;;;;;;;;5073984;28;20200;-64
2021/12/16 06:05:12;;;;;;;46.17;31.87;;;;;;;;;;5073808;28;20219;-67
2021/12/16 06:07:38;;;;;;;46.27;31.03;;;;;;;;;;5073505;28;20302;-65
2021/12/16 06:10:05;;;;;;;45.63;30.77;;;;;;;;;;5073593;28;20195;-65
2021/12/16 06:12:31;;;;;;;47.23;31.47;;;;;;;;;;5073281;28;20322;-67
2021/12/16 06:15:20;;;;;;;50.30;31.00;;;;;;;;;;5073717;28;20195;-65
2021/12/16 06:28:27;;;;;;;44.73;30.93;;;;;;;;;;5073549;28;20667;-65
2021/12/16 06:30:54;;;;;;;43.73;30.73;;;;;;;;;;5073216;28;20556;-65
2021/12/16 06:33:23;;;;;;;51.23;31.17;;;;;;;;;;5073186;28;20361;-66
2021/12/16 06:35:49;;;;;;;50.53;31.53;;;;;;;;;;5072894;28;20669;-64
2021/12/16 06:38:15;;;;;;;45.63;31.67;;;;;;;;;;5072818;28;20732;-65
2021/12/16 06:40:42;;;;;;;48.50;32.43;;;;;;;;;;5072986;28;20195;-65
2021/12/16 06:43:10;;;;;;;45.43;32.60;;;;;;;;;;5073221;28;20230;-67
2021/12/16 06:45:39;;;;;;;48.43;30.63;;;;;;;;;;5072678;28;20195;-66
2021/12/16 06:48:11;;;;;;;46.77;31.33;;;;;;;;;;5073225;28;20569;-66
2021/12/16 06:50:47;;;;;;;48.93;32.07;;;;;;;;;;5072864;28;20199;-65
2021/12/16 06:53:18;;;;;;;48.37;30.33;;;;;;;;;;5073098;28;20230;-66
2021/12/16 06:55:52;;;;;;;46.57;31.40;;;;;;;;;;5072857;28;20195;-66
2021/12/16 06:58:30;;;;;;;49.13;32.40;;;;;;;;;;5071629;28;20207;-66
2021/12/16 07:01:10;;;;;;;46.37;29.93;;;;;;;;;;5072596;28;20203;-65
2021/12/16 07:03:47;;;;;;;52.17;31.20;;;;;;;;;;5072716;28;20203;-66
2021/12/16 07:06:15;;;;;;;41.90;29.80;;;;;;;;;;5072730;28;20225;-65
2021/12/16 07:08:41;;;;;;;48.77;31.70;;;;;;;;;;5072810;28;20202;-65
2021/12/16 07:11:07;;;;;;;48.53;31.60;;;;;;;;;;5071126;28;20195;-65
2021/12/16 07:13:40;;;;;;;47.30;30.50;;;;;;;;;;5072670;28;20223;-66
2021/12/16 07:16:07;;;;;;;56.60;32.97;;;;;;;;;;5072068;28;20195;-66
2021/12/16 07:18:33;;;;;;;42.67;30.80;;;;;;;;;;5072714;28;20204;-65
2021/12/16 07:21:00;;;;;;;47.93;31.23;;;;;;;;;;5072485;28;20281;-67
2021/12/16 07:23:27;;;;;;;45.80;32.20;;;;;;;;;;5072594;28;20217;-66
2021/12/16 07:25:54;;;;;;;51.13;34.03;;;;;;;;;;5072556;28;20279;-66
2021/12/16 07:28:20;;;;;;;49.40;32.10;;;;;;;;;;5072552;28;20213;-64
2021/12/16 07:30:46;;;;;;;52.20;33.17;;;;;;;;;;5072349;28;20191;-65
2021/12/16 07:33:13;;;;;;;42.27;31.37;;;;;;;;;;5072598;28;20231;-65
2021/12/16 07:35:39;;;;;;;45.83;32.60;;;;;;;;;;5072374;28;20203;-66
2021/12/16 07:38:06;;;;;;;46.07;31.63;;;;;;;;;;5072142;28;20203;-64
2021/12/16 07:40:35;;;;;;;50.63;32.37;;;;;;;;;;5072528;28;20199;-65
2021/12/16 07:45:35;;;;;;;50.60;32.37;;;;;;;;;;5072327;28;20195;-66
2021/12/16 07:48:01;;;;;;;50.87;31.60;;;;;;;;;;5072075;28;20218;-66
2021/12/16 07:50:27;;;;;;;45.33;31.63;;;;;;;;;;5072647;28;20199;-71
2021/12/16 07:52:54;;;;;;;48.93;32.53;;;;;;;;;;5072139;28;20230;-67
2021/12/16 07:55:23;;;;;;;41.77;30.60;;;;;;;;;;5072281;28;20249;-66
2021/12/16 07:57:50;;;;;;;46.00;31.83;;;;;;;;;;5071993;28;20659;-71
2021/12/16 08:00:18;;;;;;;50.67;32.50;;;;;;;;;;5072297;28;20218;-70
2021/12/16 08:02:44;;;;;;;49.33;32.43;;;;;;;;;;5072195;28;20187;-70
2021/12/16 08:05:10;;;;;;;50.73;33.37;;;;;;;;;;5068085;28;20220;-67
2021/12/16 08:07:37;;;;;;;50.73;33.20;;;;;;;;;;5071852;28;20294;-67
2021/12/16 08:10:03;;;;;;;44.97;30.53;;;;;;;;;;5071037;28;20196;-66
2021/12/16 08:12:30;;;;;;;53.20;33.23;;;;;;;;;;5072301;28;20237;-68
2021/12/16 08:14:58;;;;;;;55.03;34.47;;;;;;;;;;5072115;28;20199;-68
2021/12/16 08:17:24;;;;;;;54.80;34.50;;;;;;;;;;5072264;28;20241;-67
2021/12/16 08:19:50;;;;;;;53.07;32.73;;;;;;;;;;5071941;28;20210;-72
2021/12/16 08:22:16;;;;;;;46.13;32.17;;;;;;;;;;5074045;28;20195;-67
2021/12/16 08:24:42;;;;;;;48.37;33.47;;;;;;;;;;5072747;28;20657;-65
2021/12/16 08:27:09;;;;;;;53.43;34.17;;;;;;;;;;5072197;28;20608;-66
2021/12/16 08:29:35;;;;;;;52.77;34.40;;;;;;;;;;5074734;28;20690;-66
2021/12/16 08:32:03;;;;;;;50.30;31.87;;;;;;;;;;5075690;28;20227;-64
2021/12/16 08:34:31;;;;;;;48.00;32.80;;;;;;;;;;5076049;28;20245;-66
2021/12/16 08:36:57;;;;;;;57.70;34.20;;;;;;;;;;5075904;28;20294;-61
2021/12/16 08:39:25;;;;;;;49.50;32.90;;;;;;;;;;5075764;28;20232;-68
2021/12/16 08:41:53;;;;;;;51.80;33.27;;;;;;;;;;5075221;28;20227;-65
2021/12/16 08:44:20;;;;;;;51.87;33.60;;;;;;;;;;5074862;28;20743;-66
2021/12/16 08:46:48;;;;;;;57.83;35.03;;;;;;;;;;5075038;28;20203;-66
2021/12/16 08:49:15;;;;;;;63.60;35.57;;;;;;;;;;5075627;28;20226;-65
2021/12/16 08:51:43;;;;;;;58.47;35.50;;;;;;;;;;5075417;28;20546;-67
2021/12/16 08:54:10;;;;;;;54.00;33.23;;;;;;;;;;5075358;28;20662;-72
2021/12/16 08:56:36;;;;;;;48.43;32.70;;;;;;;;;;5075358;28;20658;-72
2021/12/16 08:59:03;;;;;;;52.70;33.70;;;;;;;;;;5075182;28;20207;-66
2021/12/16 09:01:32;;;;;;;58.30;33.87;;;;;;;;;;5063868;28;20243;-72
2021/12/16 09:03:58;;;;;;;53.00;33.97;;;;;;;;;;5074938;28;20214;-70
2021/12/16 09:06:26;;;;;;;49.47;32.97;;;;;;;;;;5075182;28;20227;-69
2021/12/16 09:08:52;;;;;;;66.13;36.67;;;;;;;;;;5075052;28;20576;-69
2021/12/16 09:11:21;;;;;;;53.13;34.30;;;;;;;;;;5075059;28;20195;-69
2021/12/16 09:13:48;;;;;;;58.73;33.37;;;;;;;;;;5073373;28;20749;-69
2021/12/16 09:16:15;;;;;;;52.40;33.20;;;;;;;;;;5075157;28;20295;-73
2021/12/16 09:18:42;;;;;;;69.70;36.17;;;;;;;;;;5075089;28;20638;-71
2021/12/16 09:21:10;;;;;;;60.63;34.07;;;;;;;;;;5074789;28;20545;-68
2021/12/16 09:23:37;;;;;;;58.70;35.27;;;;;;;;;;5073188;28;20609;-72
2021/12/16 09:26:05;;;;;;;61.17;35.90;;;;;;;;;;5074719;28;20298;-69
2021/12/16 09:28:31;;;;;;;65.33;35.83;;;;;;;;;;5074643;28;20195;-69
2021/12/16 09:30:57;;;;;;;61.60;36.17;;;;;;;;;;5072541;28;20294;-70
2021/12/16 09:33:25;;;;;;;54.20;34.53;;;;;;;;;;5074749;28;20317;-71
2021/12/16 09:35:53;;;;;;;59.57;35.03;;;;;;;;;;5074503;28;20270;-72
2021/12/16 09:38:20;;;;;;;60.10;36.40;;;;;;;;;;5074485;28;20292;-72
2021/12/16 09:40:51;;;;;;;58.50;36.00;;;;;;;;;;5074041;28;20202;-71
2021/12/16 09:43:18;;;;;;;61.03;36.13;;;;;;;;;;5074559;28;20238;-71
2021/12/16 09:45:44;;;;;;;66.43;36.90;;;;;;;;;;5074303;28;20191;-70
2021/12/16 09:48:10;;;;;;;56.20;36.30;;;;;;;;;;5074247;28;20206;-72
2021/12/16 09:50:36;;;;;;;60.20;36.57;;;;;;;;;;5074427;28;20195;-72
2021/12/16 09:53:03;;;;;;;58.13;32.07;;;;;;;;;;5073951;28;20231;-70
2021/12/16 09:55:29;;;;;;;53.90;33.70;;;;;;;;;;5074218;28;20233;-71
2021/12/16 09:57:56;;;;;;;53.93;35.03;;;;;;;;;;5074070;28;20202;-71
2021/12/16 10:00:25;;;;;;;55.97;35.67;;;;;;;;;;5074073;28;20703;-68
2021/12/16 10:02:52;;;;;;;54.57;35.07;;;;;;;;;;5074014;28;20225;-71
2021/12/16 10:05:18;;;;;;;63.27;36.30;;;;;;;;;;5074103;28;20626;-70
2021/12/16 10:07:44;;;;;;;53.07;33.77;;;;;;;;;;5074058;28;20195;-70
2021/12/16 10:10:12;;;;;;;54.93;33.27;;;;;;;;;;5073939;28;20219;-70
2021/12/16 10:12:41;;;;;;;50.40;32.53;;;;;;;;;;5074054;28;20223;-70
2021/12/16 10:17:55;;;;;;;56.73;34.70;;;;;;;;;;5073605;28;20195;-70
2021/12/16 10:20:23;;;;;;;48.93;32.47;;;;;;;;;;5073950;28;20658;-70
2021/12/16 10:22:50;;;;;;;47.50;33.37;;;;;;;;;;5073680;28;20196;-70
2021/12/16 10:25:26;;;;;;;48.37;33.27;;;;;;;;;;5073554;28;20223;-70
2021/12/16 10:28:00;;;;;;;49.87;31.77;;;;;;;;;;5073467;28;20203;-73
2021/12/16 10:30:36;;;;;;;46.20;31.37;;;;;;;;;;5073676;28;20195;-71
2021/12/16 10:33:10;;;;;;;47.30;32.00;;;;;;;;;;5073294;28;20707;-71
2021/12/16 10:35:36;;;;;;;45.10;30.97;;;;;;;;;;5073391;28;20665;-71
2021/12/16 10:38:03;;;;;;;48.47;31.50;;;;;;;;;;5073064;28;20211;-71
2021/12/16 10:40:34;;;;;;;49.73;31.77;;;;;;;;;;5073503;28;20211;-70
2021/12/16 10:43:02;;;;;;;48.23;31.33;;;;;;;;;;5073163;28;20606;-69
2021/12/16 10:45:32;;;;;;;44.83;30.77;;;;;;;;;;5072571;28;20261;-71
2021/12/16 10:48:06;;;;;;;50.00;32.53;;;;;;;;;;5073165;28;20218;-68
2021/12/16 10:50:46;;;;;;;43.17;29.83;;;;;;;;;;5072692;28;20207;-71
2021/12/16 10:53:12;;;;;;;50.73;31.70;;;;;;;;;;5071103;28;20234;-71
2021/12/16 10:55:53;;;;;;;44.03;30.40;;;;;;;;;;5071247;28;20195;-69
2021/12/16 10:58:19;;;;;;;45.47;31.13;;;;;;;;;;5071035;28;20330;-68
2021/12/16 11:00:46;;;;;;;48.40;32.20;;;;;;;;;;5073118;28;20764;-74
2021/12/16 11:03:32;;;;;;;50.53;30.23;;;;;;;;;;5073324;28;20282;-75
2021/12/16 11:06:19;;;;;;;49.03;30.77;;;;;;;;;;5072742;28;20217;-74
2021/12/16 11:08:45;;;;;;;41.33;29.60;;;;;;;;;;5073242;28;20207;-74
2021/12/16 11:11:12;;;;;;;43.83;28.93;;;;;;;;;;5072830;28;20226;-73
2021/12/16 11:13:40;;;;;;;39.30;28.47;;;;;;;;;;5072591;28;20227;-75
2021/12/16 11:16:06;;;;;;;43.17;29.20;;;;;;;;;;5072640;28;20229;-73
2021/12/16 11:18:34;;;;;;;48.40;29.80;;;;;;;;;;5072648;28;20654;-73
2021/12/16 11:21:03;;;;;;;45.47;28.03;;;;;;;;;;5072728;28;20696;-74
2021/12/16 11:23:33;;;;;;;41.20;27.97;;;;;;;;;;5072897;28;20218;-74
2021/12/16 11:26:00;;;;;;;44.37;29.53;;;;;;;;;;5072552;28;20204;-74
2021/12/16 11:28:31;;;;;;;42.23;28.10;;;;;;;;;;5072567;28;20269;-74
2021/12/16 11:30:58;;;;;;;43.07;29.13;;;;;;;;;;5072458;28;20563;-75
2021/12/16 11:33:26;;;;;;;42.03;28.07;;;;;;;;;;5072586;28;20611;-74
2021/12/16 11:35:55;;;;;;;42.33;28.60;;;;;;;;;;5072359;28;20199;-73
2021/12/16 11:38:26;;;;;;;42.37;27.93;;;;;;;;;;5072274;28;20689;-73
2021/12/16 11:40:54;;;;;;;39.27;26.87;;;;;;;;;;5072143;28;20207;-73
2021/12/16 11:43:31;;;;;;;38.93;28.83;;;;;;;;;;5072297;28;20734;-72
2021/12/16 11:45:57;;;;;;;43.03;28.37;;;;;;;;;;5071927;28;20192;-72
2021/12/16 11:48:27;;;;;;;36.67;26.23;;;;;;;;;;5072007;28;20211;-71
2021/12/16 11:51:01;;;;;;;39.87;27.37;;;;;;;;;;5072198;28;20212;-71
2021/12/16 11:53:35;;;;;;;33.60;25.80;;;;;;;;;;5072057;28;20231;-72
2021/12/16 11:56:01;;;;;;;41.53;27.47;;;;;;;;;;5072328;28;20214;-71
2021/12/16 11:58:29;;;;;;;38.73;28.33;;;;;;;;;;5070711;28;20191;-71
2021/12/16 12:00:55;;;;;;;40.90;28.37;;;;;;;;;;5072231;28;20196;-72
2021/12/16 12:03:21;;;;;;;39.37;27.60;;;;;;;;;;5074549;28;20278;-71
2021/12/16 12:05:48;;;;;;;42.57;29.37;;;;;;;;;;5075950;28;20219;-72
2021/12/16 12:08:16;;;;;;;38.13;29.57;;;;;;;;;;5076189;28;20219;-71
2021/12/16 12:10:45;;;;;;;38.00;27.03;;;;;;;;;;5076079;28;20207;-72
2021/12/16 12:13:13;;;;;;;43.73;29.83;;;;;;;;;;5076015;28;20686;-71
2021/12/16 12:15:56;;;;;;;37.57;27.53;;;;;;;;;;5075877;28;20719;-71
2021/12/16 12:18:36;;;;;;;40.33;28.43;;;;;;;;;;5071364;28;20565;-72
2021/12/16 12:21:16;;;;;;;37.30;27.17;;;;;;;;;;5075936;28;20203;-72
2021/12/16 12:23:42;;;;;;;43.03;28.03;;;;;;;;;;5075349;28;20199;-73
2021/12/16 12:26:15;;;;;;;37.47;28.07;;;;;;;;;;5074127;28;20312;-71
2021/12/16 12:28:41;;;;;;;38.83;28.40;;;;;;;;;;5075860;28;20617;-74
2021/12/16 12:31:07;;;;;;;42.33;28.87;;;;;;;;;;5075638;28;20820;-75
2021/12/16 12:33:33;;;;;;;43.53;29.17;;;;;;;;;;5075617;28;20261;-74
2021/12/16 12:36:01;;;;;;;44.87;29.50;;;;;;;;;;5075690;28;20196;-74
2021/12/16 12:38:27;;;;;;;36.13;26.93;;;;;;;;;;5075534;28;20239;-74
2021/12/16 12:40:53;;;;;;;38.57;27.93;;;;;;;;;;5075740;28;20195;-73
2021/12/16 12:43:22;;;;;;;42.90;28.97;;;;;;;;;;5075622;28;20206;-74
2021/12/16 12:45:48;;;;;;;36.63;28.10;;;;;;;;;;5075444;28;20616;-74
2021/12/16 12:48:16;;;;;;;40.10;27.73;;;;;;;;;;5072602;28;20203;-74
2021/12/16 12:50:45;;;;;;;41.67;28.97;;;;;;;;;;5075382;28;20200;-74
2021/12/16 12:53:12;;;;;;;42.07;28.17;;;;;;;;;;5075029;28;20231;-75
2021/12/16 12:55:38;;;;;;;41.20;28.27;;;;;;;;;;5075239;28;20218;-74
2021/12/16 12:58:06;;;;;;;43.67;26.93;;;;;;;;;;5074892;28;20702;-75
2021/12/16 13:00:34;;;;;;;34.70;23.97;;;;;;;;;;5075170;28;20651;-76
2021/12/16 13:03:02;;;;;;;36.23;24.37;;;;;;;;;;5074895;28;20674;-74
2021/12/16 13:05:29;;;;;;;31.97;24.53;;;;;;;;;;5074922;28;20212;-73
2021/12/16 13:07:58;;;;;;;33.73;24.33;;;;;;;;;;5074909;28;20203;-74
2021/12/16 13:10:25;;;;;;;30.57;21.37;;;;;;;;;;5074939;28;20222;-75
2021/12/16 13:13:04;;;;;;;29.23;22.47;;;;;;;;;;5074812;28;20215;-74
2021/12/16 13:15:46;;;;;;;30.50;20.80;;;;;;;;;;5073898;28;20572;-73
2021/12/16 13:23:29;;;;;;;21.30;16.30;;;;;;;;;;5074711;28;20194;-74
2021/12/16 13:26:07;;;;;;;22.93;16.77;;;;;;;;;;5074553;28;20200;-74
2021/12/16 13:28:57;;;;;;;24.17;17.00;;;;;;;;;;5074463;28;20244;-74
2021/12/16 13:31:25;;;;;;;24.90;17.27;;;;;;;;;;5074507;28;20763;-73
2021/12/16 13:33:58;;;;;;;24.23;17.30;;;;;;;;;;5074490;28;20224;-74
2021/12/16 13:36:42;;;;;;;20.97;13.27;;;;;;;;;;5074537;28;20246;-74
2021/12/16 13:39:10;;;;;;;16.27;12.13;;;;;;;;;;5073999;28;20235;-74
2021/12/16 13:41:36;;;;;;;16.50;10.87;;;;;;;;;;5074923;28;20200;-74
2021/12/16 13:44:09;;;;;;;11.63;10.30;;;;;;;;;;5075926;28;20196;-74
2021/12/16 13:46:50;;;;;;;15.80;10.63;;;;;;;;;;5075706;28;20208;-74
2021/12/16 14:03:15;;;;;;;18.20;12.40;;;;;;;;;;5074146;28;20192;-73
2021/12/16 14:05:55;;;;;;;13.20;10.83;;;;;;;;;;5073604;28;20224;-73
2021/12/16 14:08:31;;;;;;;15.60;11.23;;;;;;;;;;5074078;28;20207;-75
2021/12/16 14:11:00;;;;;;;15.13;11.90;;;;;;;;;;5073975;28;20199;-75
2021/12/16 14:24:48;;;;;;;12.70;10.03;;;;;;;;;;5073615;28;20230;-73
2021/12/16 14:31:05;;;;;;;12.50;9.80;;;;;;;;;;5073238;28;20214;-73
2021/12/16 14:36:10;;;;;;;13.30;9.47;;;;;;;;;;5073042;28;20194;-73
2021/12/16 14:41:36;;;;;;;13.50;9.93;;;;;;;;;;5073168;28;20192;-73
2021/12/16 14:45:08;;;;;;;14.83;9.63;;;;;;;;;;5072737;28;20647;-74
2021/12/16 14:49:52;;;;;;;17.03;10.90;;;;;;;;;;5050523;28;20207;-73
2021/12/16 14:52:20;;;;;;;15.23;11.20;;;;;;;;;;5050382;28;20659;-74
2021/12/16 14:54:49;;;;;;;12.53;9.80;;;;;;;;;;5061538;28;20227;-73
2021/12/16 14:57:20;;;;;;;13.80;10.50;;;;;;;;;;5072779;28;20290;-74
2021/12/16 14:59:47;;;;;;;16.40;10.80;;;;;;;;;;5072741;28;20523;-74
2021/12/16 15:02:14;;;;;;;15.17;11.00;;;;;;;;;;5072555;28;20203;-74
2021/12/16 15:04:40;;;;;;;13.77;10.07;;;;;;;;;;5073338;28;20567;-74
2021/12/16 15:07:10;;;;;;;18.33;11.20;;;;;;;;;;5073076;28;20199;-73
2021/12/16 15:09:39;;;;;;;14.57;10.97;;;;;;;;;;5072823;28;20761;-73
2021/12/16 15:12:46;;;;;;;15.00;11.43;;;;;;;;;;5072879;28;20203;-73
2021/12/16 15:15:13;;;;;;;16.03;11.30;;;;;;;;;;5071381;28;20211;-74
2021/12/16 15:39:52;;;;;;;18.90;13.33;;;;;;;;;;5072351;28;20316;-75
2021/12/16 15:45:06;;;;;;;18.63;12.20;;;;;;;;;;5072168;28;20230;-73
2021/12/16 15:47:38;;;;;;;19.50;12.00;;;;;;;;;;5072261;28;20203;-73
2021/12/16 15:50:05;;;;;;;16.13;11.47;;;;;;;;;;5072157;28;20256;-74
2021/12/16 15:52:37;;;;;;;16.30;11.17;;;;;;;;;;5072229;28;20223;-74
2021/12/16 15:55:04;;;;;;;14.93;11.97;;;;;;;;;;5072115;28;20199;-75
2021/12/16 15:57:30;;;;;;;17.97;11.80;;;;;;;;;;5072205;28;20183;-73
2021/12/16 16:00:10;;;;;;;17.70;12.03;;;;;;;;;;5072059;28;20252;-74
2021/12/16 16:02:38;;;;;;;16.87;12.83;;;;;;;;;;5072120;28;20245;-74
2021/12/16 16:05:04;;;;;;;18.47;13.40;;;;;;;;;;5071893;28;20249;-74
2021/12/16 16:07:33;;;;;;;15.27;11.43;;;;;;;;;;5072092;28;20241;-74
2021/12/16 16:09:59;;;;;;;16.40;11.70;;;;;;;;;;5072129;28;20195;-74
2021/12/16 16:12:29;;;;;;;14.87;11.67;;;;;;;;;;5071948;28;20210;-74
2021/12/16 16:15:00;;;;;;;16.80;11.37;;;;;;;;;;5071867;28;20199;-74
2021/12/16 16:17:26;;;;;;;15.33;10.93;;;;;;;;;;5071964;28;20566;-73
2021/12/16 16:19:54;;;;;;;17.30;12.03;;;;;;;;;;5071833;28;20286;-73
2021/12/16 16:22:20;;;;;;;15.90;10.90;;;;;;;;;;5071838;28;20275;-73
2021/12/16 16:24:49;;;;;;;15.97;10.20;;;;;;;;;;5071935;28;20225;-73
2021/12/16 16:27:17;;;;;;;17.83;11.37;;;;;;;;;;5072099;28;20226;-74
2021/12/16 16:29:44;;;;;;;13.50;10.57;;;;;;;;;;5071871;28;20800;-74
2021/12/16 16:32:11;;;;;;;17.47;11.70;;;;;;;;;;5071757;28;20187;-74
2021/12/16 16:34:40;;;;;;;14.53;11.17;;;;;;;;;;5071861;28;20307;-75
2021/12/16 16:37:08;;;;;;;15.57;11.53;;;;;;;;;;5071944;28;20200;-74
2021/12/16 16:39:35;;;;;;;15.83;11.63;;;;;;;;;;5071815;28;20276;-74
2021/12/16 16:42:03;;;;;;;18.97;12.87;;;;;;;;;;5071957;28;20196;-74
2021/12/16 16:44:31;;;;;;;17.30;11.90;;;;;;;;;;5071633;28;20693;-74
2021/12/16 16:47:02;;;;;;;17.20;11.73;;;;;;;;;;5071687;28;20661;-74
2021/12/16 16:49:29;;;;;;;18.43;11.90;;;;;;;;;;5072589;28;20654;-74
2021/12/16 16:51:56;;;;;;;16.97;11.73;;;;;;;;;;5075307;28;20290;-75
2021/12/16 16:54:37;;;;;;;20.43;12.27;;;;;;;;;;5075500;28;20224;-75
2021/12/16 16:57:04;;;;;;;16.57;10.70;;;;;;;;;;5075534;28;20282;-74
2021/12/16 16:59:36;;;;;;;17.53;11.87;;;;;;;;;;5075195;28;20195;-74
2021/12/16 17:02:04;;;;;;;19.27;11.67;;;;;;;;;;5074961;28;20192;-74
2021/12/16 17:04:32;;;;;;;15.03;10.47;;;;;;;;;;5073720;28;20601;-74
2021/12/16 17:06:59;;;;;;;17.50;11.27;;;;;;;;;;5074975;28;20686;-75
2021/12/16 17:09:31;;;;;;;18.87;11.20;;;;;;;;;;5075159;28;20210;-74
2021/12/16 17:11:58;;;;;;;20.50;11.73;;;;;;;;;;5075335;28;20184;-74
2021/12/16 17:14:34;;;;;;;18.57;12.93;;;;;;;;;;5075054;28;20272;-74
2021/12/16 17:17:20;;;;;;;18.43;12.90;;;;;;;;;;5075254;28;20666;-75
2021/12/16 17:19:47;;;;;;;18.23;11.20;;;;;;;;;;5075205;28;20196;-75
2021/12/16 17:22:14;;;;;;;17.83;11.73;;;;;;;;;;5075074;28;20392;-74
2021/12/16 17:24:42;;;;;;;17.30;13.17;;;;;;;;;;5075123;28;20650;-75
2021/12/16 17:27:11;;;;;;;15.47;11.47;;;;;;;;;;5074919;28;20249;-74
2021/12/16 17:29:38;;;;;;;18.80;12.60;;;;;;;;;;5074996;28;20282;-76
2021/12/16 17:32:05;;;;;;;16.83;12.43;;;;;;;;;;5074909;28;20286;-75
2021/12/16 17:34:32;;;;;;;17.07;12.57;;;;;;;;;;5074945;28;20280;-74
2021/12/16 17:37:00;;;;;;;14.13;10.87;;;;;;;;;;5074741;28;20200;-74
2021/12/16 17:39:27;;;;;;;15.13;10.83;;;;;;;;;;5074518;28;20246;-75
2021/12/16 17:41:55;;;;;;;15.83;11.67;;;;;;;;;;5074074;28;20290;-74
2021/12/16 17:44:25;;;;;;;16.33;11.37;;;;;;;;;;5072667;28;20560;-75
2021/12/16 17:46:52;;;;;;;13.93;9.60;;;;;;;;;;5074983;28;20199;-75
2021/12/16 17:49:18;;;;;;;12.50;9.73;;;;;;;;;;5072683;28;20787;-74
2021/12/16 17:51:44;;;;;;;14.43;10.27;;;;;;;;;;5073222;28;20677;-74
2021/12/16 17:54:11;;;;;;;15.33;10.87;;;;;;;;;;5074106;28;20223;-74
2021/12/16 17:56:37;;;;;;;14.67;11.10;;;;;;;;;;5074250;28;20269;-75
2021/12/16 17:59:04;;;;;;;19.33;12.17;;;;;;;;;;5074011;28;20192;-74
2021/12/16 18:01:33;;;;;;;15.33;10.53;;;;;;;;;;5073997;28;20249;-74